Time;durP1;ratioP1;P1;durP2;ratioP2;P2;SDS_P1;SDS_P2;PMS_P1;PMS_P2;Temp;Humidity;BMP_temperature;BMP_pressure;BME280_temperature;BME280_humidity;BME280_pressure;Samples;Min_cycle;Max_cycle;Signal;HPM_P1;HPM_P2
2023/09/12 00:01:12;;;;;;;12.90;11.70;;;18.00;99.90;;;;;;5018316;28;20201;-79
2023/09/12 00:03:39;;;;;;;14.00;12.33;;;18.00;99.90;;;;;;5020455;28;20198;-80
2023/09/12 00:06:06;;;;;;;12.73;11.57;;;18.00;99.90;;;;;;5021979;28;20236;-79
2023/09/12 00:08:33;;;;;;;14.40;13.00;;;18.00;99.90;;;;;;5023908;28;20627;-79
2023/09/12 00:11:04;;;;;;;13.10;11.63;;;17.90;99.90;;;;;;5025660;28;20201;-79
2023/09/12 00:13:31;;;;;;;13.43;12.20;;;17.90;99.90;;;;;;5018600;28;20264;-79
2023/09/12 00:16:00;;;;;;;13.67;12.27;;;17.90;99.90;;;;;;5021177;28;20198;-79
2023/09/12 00:18:27;;;;;;;15.10;13.57;;;17.90;99.90;;;;;;5018149;28;20196;-78
2023/09/12 00:20:54;;;;;;;14.93;13.33;;;17.90;99.90;;;;;;5019131;28;20203;-79
2023/09/12 00:23:22;;;;;;;13.87;12.57;;;17.80;99.90;;;;;;5022193;28;20189;-78
2023/09/12 00:25:50;;;;;;;14.90;13.50;;;17.80;99.90;;;;;;5023860;28;20195;-79
2023/09/12 00:28:17;;;;;;;14.17;12.77;;;17.80;99.90;;;;;;5023016;28;20889;-79
2023/09/12 00:30:44;;;;;;;13.87;12.47;;;17.80;99.90;;;;;;5019982;28;20204;-79
2023/09/12 00:33:12;;;;;;;13.73;12.40;;;17.80;99.90;;;;;;5020453;28;20637;-79
2023/09/12 00:35:39;;;;;;;12.87;11.80;;;17.70;99.90;;;;;;5031118;28;20205;-78
2023/09/12 00:38:06;;;;;;;14.00;12.70;;;17.70;99.90;;;;;;5017554;28;20197;-78
2023/09/12 00:40:33;;;;;;;13.57;12.30;;;17.70;99.90;;;;;;5024015;28;20365;-78
2023/09/12 00:43:00;;;;;;;13.53;12.23;;;17.60;99.90;;;;;;5021639;28;20197;-78
2023/09/12 00:45:27;;;;;;;14.50;13.00;;;17.60;99.90;;;;;;5023575;28;20663;-79
2023/09/12 00:47:54;;;;;;;13.53;12.33;;;17.60;99.90;;;;;;5018139;28;20200;-80
2023/09/12 00:50:24;;;;;;;14.30;12.83;;;17.60;99.90;;;;;;5018844;28;20236;-79
2023/09/12 00:52:51;;;;;;;14.07;12.73;;;17.60;99.90;;;;;;5026171;28;20308;-80
2023/09/12 00:55:18;;;;;;;13.33;12.07;;;17.60;99.90;;;;;;5016102;28;20284;-79
2023/09/12 00:57:46;;;;;;;15.00;12.57;;;17.60;99.90;;;;;;5026690;28;20200;-79
2023/09/12 01:00:14;;;;;;;13.43;12.10;;;17.50;99.90;;;;;;5020085;28;20228;-79
2023/09/12 01:02:41;;;;;;;13.00;11.77;;;17.50;99.90;;;;;;5018441;28;20244;-79
2023/09/12 01:05:09;;;;;;;12.40;11.30;;;17.50;99.90;;;;;;5020135;28;20205;-79
2023/09/12 01:07:38;;;;;;;13.00;11.80;;;17.50;99.90;;;;;;5017585;28;20204;-79
2023/09/12 01:10:07;;;;;;;14.80;13.27;;;17.40;99.90;;;;;;5033926;28;20606;-78
2023/09/12 01:12:33;;;;;;;13.33;12.03;;;17.40;99.90;;;;;;5030205;28;20223;-79
2023/09/12 01:15:01;;;;;;;13.90;12.50;;;17.40;99.90;;;;;;5034157;28;20211;-79
2023/09/12 01:17:28;;;;;;;14.30;12.70;;;17.40;99.90;;;;;;5029836;28;20193;-79
2023/09/12 01:19:55;;;;;;;13.23;12.07;;;17.40;99.90;;;;;;5014600;28;20324;-79
2023/09/12 01:22:46;;;;;;;13.77;12.67;;;17.40;99.90;;;;;;5018308;28;20275;-79
2023/09/12 01:25:46;;;;;;;13.47;12.27;;;17.40;99.90;;;;;;5002077;28;20746;-79
2023/09/12 01:28:16;;;;;;;14.40;13.00;;;17.30;99.90;;;;;;5020122;28;20208;-79
2023/09/12 01:30:46;;;;;;;14.07;12.90;;;17.30;99.90;;;;;;5020562;28;20216;-78
2023/09/12 01:33:13;;;;;;;14.43;13.13;;;17.30;99.90;;;;;;5021748;28;20224;-79
2023/09/12 01:35:40;;;;;;;13.40;12.20;;;17.30;99.90;;;;;;5016961;28;20711;-78
2023/09/12 01:38:08;;;;;;;14.37;13.07;;;17.30;99.90;;;;;;5018015;28;20192;-78
2023/09/12 01:40:44;;;;;;;15.00;13.47;;;17.30;99.90;;;;;;5018630;28;20608;-79
2023/09/12 01:43:12;;;;;;;15.00;13.40;;;17.30;99.90;;;;;;5015743;28;20204;-80
2023/09/12 01:45:41;;;;;;;14.07;12.63;;;17.20;99.90;;;;;;5019088;28;20215;-79
2023/09/12 01:48:08;;;;;;;14.93;13.53;;;17.30;99.90;;;;;;5020618;28;20205;-78
2023/09/12 01:50:36;;;;;;;15.10;13.03;;;17.30;99.90;;;;;;5021013;28;20675;-79
2023/09/12 01:53:04;;;;;;;15.17;13.77;;;17.20;99.90;;;;;;5025330;28;20224;-78
2023/09/12 01:55:31;;;;;;;14.40;12.70;;;17.20;99.90;;;;;;5025280;28;20200;-79
2023/09/12 01:57:58;;;;;;;13.60;12.20;;;17.20;99.90;;;;;;5027270;28;20199;-79
2023/09/12 02:00:25;;;;;;;14.33;12.93;;;17.20;99.90;;;;;;5019485;28;20270;-79
2023/09/12 02:02:54;;;;;;;13.47;12.17;;;17.10;99.90;;;;;;5019779;28;20197;-79
2023/09/12 02:05:22;;;;;;;14.23;12.93;;;17.20;99.90;;;;;;5020031;28;20203;-79
2023/09/12 02:07:50;;;;;;;14.07;12.67;;;17.10;99.90;;;;;;5016508;28;20201;-79
2023/09/12 02:10:18;;;;;;;14.43;13.07;;;17.00;99.90;;;;;;5020319;28;20239;-79
2023/09/12 02:12:44;;;;;;;14.57;13.07;;;17.00;99.90;;;;;;5017706;28;20220;-79
2023/09/12 02:15:12;;;;;;;14.70;13.20;;;17.00;99.90;;;;;;5018270;28;20201;-78
2023/09/12 02:17:39;;;;;;;14.30;13.00;;;16.90;99.90;;;;;;5018346;28;20238;-79
2023/09/12 02:20:09;;;;;;;13.83;12.47;;;16.90;99.90;;;;;;5024246;28;20278;-79
2023/09/12 02:22:36;;;;;;;13.47;12.23;;;16.90;99.90;;;;;;5012802;28;20200;-79
2023/09/12 02:25:04;;;;;;;14.13;12.93;;;16.80;99.90;;;;;;5020134;28;20208;-79
2023/09/12 02:27:31;;;;;;;13.80;12.43;;;16.80;99.90;;;;;;5016901;28;20236;-78
2023/09/12 02:29:58;;;;;;;13.47;12.20;;;16.80;99.90;;;;;;5017089;28;20235;-79
2023/09/12 02:32:25;;;;;;;14.00;12.70;;;16.70;99.90;;;;;;5017196;28;20219;-79
2023/09/12 02:34:53;;;;;;;13.43;12.07;;;16.70;99.90;;;;;;5019518;28;20203;-79
2023/09/12 02:37:21;;;;;;;13.63;12.40;;;16.70;99.90;;;;;;5014418;28;20207;-79
2023/09/12 02:39:48;;;;;;;13.30;12.10;;;16.60;99.90;;;;;;5020082;28;20613;-79
2023/09/12 02:42:14;;;;;;;14.23;12.93;;;16.60;99.90;;;;;;5023621;28;20440;-81
2023/09/12 02:44:41;;;;;;;13.80;12.70;;;16.60;99.90;;;;;;5019855;28;20212;-78
2023/09/12 02:47:08;;;;;;;14.13;12.93;;;16.60;99.90;;;;;;5015339;28;20200;-79
2023/09/12 02:49:35;;;;;;;13.67;12.47;;;16.60;99.90;;;;;;5019349;28;20694;-79
2023/09/12 02:52:02;;;;;;;14.30;12.93;;;16.50;99.90;;;;;;5022256;28;20207;-81
2023/09/12 02:54:30;;;;;;;13.17;12.07;;;16.50;99.90;;;;;;5016359;28;20576;-81
2023/09/12 02:56:59;;;;;;;13.70;12.47;;;16.50;99.90;;;;;;5027814;28;20621;-83
2023/09/12 02:59:26;;;;;;;12.97;11.97;;;16.40;99.90;;;;;;5020740;28;20227;-82
2023/09/12 03:01:53;;;;;;;13.33;12.23;;;16.40;99.90;;;;;;5033164;28;20215;-84
2023/09/12 03:04:20;;;;;;;13.60;12.40;;;16.40;99.90;;;;;;5032274;28;20196;-82
2023/09/12 03:06:47;;;;;;;12.97;11.87;;;16.40;99.90;;;;;;5031063;28;20211;-82
2023/09/12 03:09:16;;;;;;;14.57;13.27;;;16.40;99.90;;;;;;5032720;28;20231;-82
2023/09/12 03:11:44;;;;;;;14.43;13.07;;;16.40;99.90;;;;;;5032507;28;20206;-83
2023/09/12 03:14:11;;;;;;;14.53;13.20;;;16.40;99.90;;;;;;5026405;28;20202;-83
2023/09/12 03:16:39;;;;;;;14.07;12.70;;;16.40;99.90;;;;;;5025943;28;20195;-83
2023/09/12 03:22:05;;;;;;;15.67;13.47;;;16.40;99.90;;;;;;5035172;28;20195;-83
2023/09/12 03:24:32;;;;;;;14.53;13.17;;;16.30;99.90;;;;;;5029871;28;20573;-82
2023/09/12 03:27:01;;;;;;;14.10;13.00;;;16.20;99.90;;;;;;5024253;28;20371;-80
2023/09/12 03:29:31;;;;;;;13.90;12.70;;;16.30;99.90;;;;;;5029403;28;20224;-82
2023/09/12 03:31:58;;;;;;;13.50;12.37;;;16.30;99.90;;;;;;5029427;28;20222;-82
2023/09/12 03:34:25;;;;;;;14.40;13.20;;;16.30;99.90;;;;;;5027801;28;20215;-81
2023/09/12 03:36:52;;;;;;;13.50;12.40;;;16.30;99.90;;;;;;5027893;28;20211;-79
2023/09/12 03:39:19;;;;;;;13.07;12.07;;;16.30;99.90;;;;;;5025798;28;20246;-78
2023/09/12 03:41:46;;;;;;;13.90;12.80;;;16.30;99.90;;;;;;5030161;28;20279;-78
2023/09/12 03:44:15;;;;;;;13.80;12.80;;;16.30;99.90;;;;;;5022063;28;20201;-79
2023/09/12 03:46:41;;;;;;;13.30;12.30;;;16.30;99.90;;;;;;5032123;28;20279;-78
2023/09/12 03:49:08;;;;;;;13.33;12.23;;;16.30;99.90;;;;;;5022015;28;20616;-78
2023/09/12 03:51:37;;;;;;;14.43;13.03;;;16.30;99.90;;;;;;5022823;28;20211;-78
2023/09/12 03:54:04;;;;;;;13.60;12.60;;;16.30;99.90;;;;;;5025215;28;20220;-78
2023/09/12 03:56:32;;;;;;;13.80;12.70;;;16.30;99.90;;;;;;5030078;28;20192;-79
2023/09/12 03:58:59;;;;;;;14.00;12.90;;;16.30;99.90;;;;;;5023802;28;20228;-79
2023/09/12 04:01:29;;;;;;;14.00;13.00;;;16.30;99.90;;;;;;5034919;28;20199;-78
2023/09/12 04:03:56;;;;;;;13.37;12.27;;;16.30;99.90;;;;;;5030560;28;20288;-78
2023/09/12 04:06:22;;;;;;;13.70;12.60;;;16.30;99.90;;;;;;5027889;28;20257;-79
2023/09/12 04:08:49;;;;;;;14.27;13.17;;;16.30;99.90;;;;;;5027503;28;20309;-79
2023/09/12 04:11:16;;;;;;;14.53;13.43;;;16.30;99.90;;;;;;5021185;28;20621;-79
2023/09/12 04:13:43;;;;;;;15.40;14.20;;;16.20;99.90;;;;;;5026379;28;20217;-79
2023/09/12 04:16:10;;;;;;;15.00;13.73;;;16.20;99.90;;;;;;5027577;28;20214;-78
2023/09/12 04:18:39;;;;;;;15.77;14.37;;;16.20;99.90;;;;;;5026238;28;20238;-79
2023/09/12 04:21:06;;;;;;;15.47;14.27;;;16.20;99.90;;;;;;5030319;28;20242;-79
2023/09/12 04:23:33;;;;;;;16.00;14.70;;;16.20;99.90;;;;;;5024484;28;20192;-78
2023/09/12 04:26:03;;;;;;;15.20;14.03;;;16.20;99.90;;;;;;5031398;28;20250;-78
2023/09/12 04:28:30;;;;;;;15.93;14.73;;;16.20;99.90;;;;;;5024440;28;20216;-79
2023/09/12 04:31:03;;;;;;;15.67;14.47;;;16.20;99.90;;;;;;5019822;28;20192;-78
2023/09/12 04:33:30;;;;;;;15.87;14.70;;;16.20;99.90;;;;;;5020525;28;20216;-78
2023/09/12 04:36:01;;;;;;;15.70;14.50;;;16.20;99.90;;;;;;5024257;28;20215;-78
2023/09/12 04:38:28;;;;;;;15.50;14.30;;;16.10;99.90;;;;;;5025109;28;20226;-78
2023/09/12 04:40:55;;;;;;;15.83;14.63;;;16.10;99.90;;;;;;5028143;28;20667;-79
2023/09/12 04:43:23;;;;;;;15.57;14.37;;;16.10;99.90;;;;;;5027087;28;20199;-79
2023/09/12 04:45:50;;;;;;;15.57;14.47;;;16.10;99.90;;;;;;5023883;28;20570;-78
2023/09/12 04:48:17;;;;;;;16.10;14.83;;;16.10;99.90;;;;;;5024591;28;20200;-78
2023/09/12 04:50:44;;;;;;;17.10;15.80;;;16.10;99.90;;;;;;5021356;28;20200;-78
2023/09/12 04:53:12;;;;;;;16.63;15.33;;;16.00;99.90;;;;;;5023674;28;20227;-78
2023/09/12 04:55:39;;;;;;;16.43;15.23;;;16.10;99.90;;;;;;5025969;28;20211;-79
2023/09/12 04:58:07;;;;;;;15.77;14.47;;;16.10;99.90;;;;;;5022843;28;20332;-79
2023/09/12 05:00:35;;;;;;;16.37;15.07;;;16.00;99.90;;;;;;5035500;28;20219;-79
2023/09/12 05:03:03;;;;;;;15.77;14.47;;;16.10;99.90;;;;;;5029694;28;20250;-79
2023/09/12 05:05:30;;;;;;;16.13;14.83;;;16.00;99.90;;;;;;5023707;28;20211;-78
2023/09/12 05:07:57;;;;;;;15.80;14.60;;;16.00;99.90;;;;;;5020982;28;20248;-78
2023/09/12 05:10:25;;;;;;;15.77;14.47;;;16.10;99.90;;;;;;5026268;28;20230;-79
2023/09/12 05:12:52;;;;;;;17.30;15.70;;;16.10;99.90;;;;;;5037586;28;20199;-79
2023/09/12 05:15:19;;;;;;;16.53;15.13;;;16.10;99.90;;;;;;5029567;28;20645;-80
2023/09/12 05:17:46;;;;;;;17.13;15.73;;;16.20;99.90;;;;;;5036730;28;20196;-79
2023/09/12 05:20:13;;;;;;;16.30;15.03;;;16.20;99.90;;;;;;5022774;28;20216;-79
2023/09/12 05:22:40;;;;;;;15.67;14.47;;;16.30;99.90;;;;;;5026551;28;20211;-79
2023/09/12 05:25:07;;;;;;;15.83;14.60;;;16.30;99.90;;;;;;5030792;28;20219;-79
2023/09/12 05:27:35;;;;;;;16.43;15.13;;;16.40;99.90;;;;;;5025891;28;20211;-79
2023/09/12 05:30:03;;;;;;;16.20;14.90;;;16.40;99.90;;;;;;5021493;28;20227;-79
2023/09/12 05:32:29;;;;;;;16.10;14.80;;;16.50;99.90;;;;;;5023503;28;20674;-79
2023/09/12 05:34:56;;;;;;;16.93;15.63;;;16.50;99.90;;;;;;5021610;28;20216;-78
2023/09/12 05:37:23;;;;;;;16.43;15.17;;;16.60;99.90;;;;;;5023820;28;20196;-79
2023/09/12 05:39:50;;;;;;;16.10;14.83;;;16.70;99.90;;;;;;5027978;28;20212;-79
2023/09/12 05:42:20;;;;;;;16.20;14.90;;;16.80;99.90;;;;;;5023603;28;20207;-79
2023/09/12 05:44:50;;;;;;;15.93;14.63;;;17.00;99.90;;;;;;5032400;28;20204;-79
2023/09/12 05:47:17;;;;;;;14.63;13.43;;;17.20;99.90;;;;;;5023936;28;20200;-78
2023/09/12 05:49:44;;;;;;;9.40;7.50;;;17.40;99.90;;;;;;5024279;28;20255;-79
2023/09/12 05:52:11;;;;;;;9.83;7.20;;;17.60;99.90;;;;;;5021740;28;20461;-77
2023/09/12 05:54:38;;;;;;;9.80;8.17;;;17.80;99.90;;;;;;5026508;28;20229;-80
2023/09/12 05:57:05;;;;;;;8.43;7.47;;;18.10;99.90;;;;;;5015103;28;20193;-81
2023/09/12 05:59:33;;;;;;;12.50;11.27;;;18.40;99.90;;;;;;5016720;28;20300;-80
2023/09/12 06:02:01;;;;;;;11.73;10.53;;;18.70;99.90;;;;;;5018176;28;20205;-81
2023/09/12 06:04:52;;;;;;;12.30;11.27;;;19.00;99.90;;;;;;5138961;27;20672;-82
2023/09/12 06:07:19;;;;;;;11.33;10.23;;;19.20;99.90;;;;;;5146750;27;20212;-82
2023/09/12 06:09:47;;;;;;;10.43;9.43;;;19.30;99.90;;;;;;5144731;27;20223;-83
2023/09/12 06:12:13;;;;;;;9.40;8.30;;;19.50;99.90;;;;;;5149279;27;20259;-83
2023/09/12 06:14:43;;;;;;;11.27;10.27;;;19.70;99.90;;;;;;5139835;27;20199;-84
2023/09/12 06:17:10;;;;;;;13.30;11.90;;;19.80;99.90;;;;;;5148309;27;20221;-82
2023/09/12 06:19:36;;;;;;;12.40;11.20;;;19.90;99.90;;;;;;5148208;27;20271;-81
2023/09/12 06:22:05;;;;;;;13.13;11.93;;;19.90;99.90;;;;;;5142506;27;20199;-80
2023/09/12 06:24:31;;;;;;;14.77;13.47;;;19.80;99.90;;;;;;5149492;27;20200;-80
2023/09/12 06:26:58;;;;;;;13.33;12.13;;;19.80;99.90;;;;;;5135298;27;20187;-80
2023/09/12 06:29:27;;;;;;;12.30;10.50;;;19.80;99.90;;;;;;5148767;27;20216;-78
2023/09/12 06:31:56;;;;;;;11.33;9.27;;;19.80;99.90;;;;;;5127700;27;20199;-80
2023/09/12 06:34:22;;;;;;;12.43;11.23;;;19.80;99.90;;;;;;5142342;27;20578;-79
2023/09/12 06:36:49;;;;;;;14.30;13.10;;;19.90;99.90;;;;;;5146770;27;20204;-80
2023/09/12 06:39:17;;;;;;;10.40;9.30;;;19.90;99.90;;;;;;5146063;27;20211;-81
2023/09/12 06:41:44;;;;;;;11.13;9.17;;;19.90;99.90;;;;;;5146166;27;20197;-79
2023/09/12 06:44:11;;;;;;;13.53;9.03;;;19.90;99.90;;;;;;5144428;27;20223;-80
2023/09/12 06:46:38;;;;;;;11.30;8.97;;;19.90;99.90;;;;;;5145818;27;20219;-80
2023/09/12 06:49:05;;;;;;;11.67;8.50;;;19.90;99.90;;;;;;5153970;27;20241;-79
2023/09/12 06:51:32;;;;;;;14.13;12.70;;;19.90;99.90;;;;;;5145021;27;20204;-77
2023/09/12 06:53:59;;;;;;;9.97;8.67;;;19.90;99.90;;;;;;5129352;27;20195;-77
2023/09/12 06:56:28;;;;;;;10.07;8.60;;;19.90;99.90;;;;;;5143983;27;20253;-77
2023/09/12 06:58:55;;;;;;;9.73;8.60;;;19.80;99.90;;;;;;5141728;27;20230;-76
2023/09/12 07:01:21;;;;;;;11.63;10.53;;;19.80;99.90;;;;;;5130576;27;20199;-77
2023/09/12 07:03:53;;;;;;;12.83;10.93;;;19.80;99.90;;;;;;5142127;27;20685;-78
2023/09/12 07:06:20;;;;;;;13.63;12.40;;;19.80;99.90;;;;;;5145058;27;20225;-77
2023/09/12 07:08:47;;;;;;;10.80;9.70;;;19.90;99.90;;;;;;5144359;27;20254;-78
2023/09/12 07:11:14;;;;;;;9.13;8.23;;;19.90;99.90;;;;;;5142664;27;20713;-77
2023/09/12 07:13:42;;;;;;;10.30;8.87;;;20.00;99.90;;;;;;5143043;27;20226;-77
2023/09/12 07:16:15;;;;;;;8.97;8.07;;;20.10;99.90;;;;;;5136972;27;20199;-81
2023/09/12 07:18:50;;;;;;;9.83;8.53;;;20.10;99.90;;;;;;5130570;27;20213;-81
2023/09/12 07:21:17;;;;;;;11.40;10.40;;;20.10;99.90;;;;;;5133014;27;20577;-80
2023/09/12 07:23:44;;;;;;;8.87;7.97;;;20.20;99.90;;;;;;5131276;27;20285;-78
2023/09/12 07:26:13;;;;;;;13.57;12.20;;;20.20;99.90;;;;;;5122725;27;20215;-77
2023/09/12 07:28:41;;;;;;;11.90;9.43;;;20.20;99.90;;;;;;5119311;27;20246;-77
2023/09/12 07:31:08;;;;;;;10.20;8.57;;;20.10;99.90;;;;;;5120324;27;20185;-77
2023/09/12 07:33:35;;;;;;;9.80;8.83;;;20.20;99.90;;;;;;5118569;27;20202;-78
2023/09/12 07:36:02;;;;;;;10.07;8.23;;;20.30;99.90;;;;;;5129116;27;20231;-78
2023/09/12 07:38:30;;;;;;;11.37;9.60;;;20.40;99.90;;;;;;5117669;27;20252;-77
2023/09/12 07:40:57;;;;;;;10.83;9.03;;;20.50;99.90;;;;;;5127511;27;20288;-78
2023/09/12 07:43:24;;;;;;;11.97;9.80;;;20.80;99.90;;;;;;5127144;27;20772;-77
2023/09/12 07:45:57;;;;;;;16.13;11.33;;;21.20;99.90;;;;;;5125715;27;20208;-78
2023/09/12 07:48:24;;;;;;;15.87;14.47;;;21.70;99.90;;;;;;5130943;27;20203;-78
2023/09/12 07:50:51;;;;;;;13.47;11.40;;;22.50;99.90;;;;;;5134721;27;20196;-77
2023/09/12 07:53:18;;;;;;;14.27;13.00;;;23.30;99.90;;;;;;5124804;27;20197;-76
2023/09/12 07:55:46;;;;;;;15.10;13.60;;;24.10;99.90;;;;;;5133811;27;20202;-78
2023/09/12 07:58:14;;;;;;;9.63;8.53;;;24.80;99.90;;;;;;5135912;27;20558;-77
2023/09/12 08:00:41;;;;;;;10.17;9.17;;;25.30;99.90;;;;;;5130933;27;20197;-77
2023/09/12 08:03:09;;;;;;;12.30;11.20;;;25.90;99.90;;;;;;5134566;27;20362;-78
2023/09/12 08:05:36;;;;;;;9.40;8.07;;;26.30;99.90;;;;;;5134526;27;20547;-79
2023/09/12 08:08:03;;;;;;;9.90;8.70;;;26.10;99.90;;;;;;5122210;27;20615;-79
2023/09/12 08:10:30;;;;;;;9.83;8.10;;;25.90;99.90;;;;;;5130129;27;20299;-79
2023/09/12 08:12:57;;;;;;;8.97;8.07;;;25.90;99.90;;;;;;5132993;27;20196;-78
2023/09/12 08:15:24;;;;;;;11.43;10.33;;;25.90;99.90;;;;;;5132342;27;20196;-79
2023/09/12 08:17:53;;;;;;;9.77;8.87;;;26.00;99.90;;;;;;5130613;27;20254;-78
2023/09/12 08:20:21;;;;;;;10.50;9.43;;;26.00;99.90;;;;;;5131576;27;20220;-78
2023/09/12 08:22:48;;;;;;;10.33;9.13;;;26.30;99.90;;;;;;5134458;27;20219;-80
2023/09/12 08:25:15;;;;;;;13.77;10.93;;;26.40;99.90;;;;;;5129041;27;20633;-79
2023/09/12 08:27:43;;;;;;;11.40;9.10;;;26.90;99.90;;;;;;5131150;27;20253;-77
2023/09/12 08:30:12;;;;;;;12.83;11.63;;;27.20;99.90;;;;;;5121090;27;20275;-79
2023/09/12 08:32:43;;;;;;;12.77;9.17;;;27.30;99.90;;;;;;5129862;27;20291;-80
2023/09/12 08:35:10;;;;;;;10.37;9.20;;;27.60;99.90;;;;;;5127837;27;20603;-79
2023/09/12 08:37:39;;;;;;;14.53;13.23;;;27.90;99.90;;;;;;5126554;27;20205;-79
2023/09/12 08:40:08;;;;;;;13.83;12.63;;;28.10;99.90;;;;;;5125012;27;20213;-78
2023/09/12 08:42:41;;;;;;;14.53;13.13;;;28.10;99.90;;;;;;5117664;27;20196;-80
2023/09/12 08:45:59;;;;;;;14.37;13.17;;;28.00;99.90;;;;;;5116331;27;20283;-84
2023/09/12 08:52:26;;;;;;;13.00;11.00;;;28.60;99.90;;;;;;5088825;27;20192;-80
2023/09/12 08:54:57;;;;;;;14.23;13.10;;;29.10;99.90;;;;;;5124882;27;20292;-84
2023/09/12 08:57:26;;;;;;;12.93;11.93;;;29.50;99.90;;;;;;5128197;27;20662;-85
2023/09/12 08:59:54;;;;;;;14.97;13.47;;;29.60;99.90;;;;;;5128480;27;20227;-84
2023/09/12 09:02:21;;;;;;;13.37;12.03;;;29.80;99.90;;;;;;5117137;27;20197;-85
2023/09/12 09:04:50;;;;;;;12.20;11.10;;;29.90;99.90;;;;;;5126133;27;20211;-85
2023/09/12 09:07:19;;;;;;;12.63;11.43;;;30.00;99.90;;;;;;5124487;27;20226;-83
2023/09/12 09:09:47;;;;;;;12.50;11.47;;;30.10;99.90;;;;;;5119829;27;20274;-83
2023/09/12 09:12:15;;;;;;;13.17;12.17;;;30.30;99.90;;;;;;5113392;27;20231;-83
2023/09/12 09:14:42;;;;;;;13.67;12.67;;;30.40;99.90;;;;;;5106549;28;20217;-84
2023/09/12 09:17:11;;;;;;;11.33;10.43;;;30.50;99.90;;;;;;5104529;28;20667;-83
2023/09/12 09:19:45;;;;;;;13.77;12.77;;;30.70;99.90;;;;;;5106304;28;20226;-83
2023/09/12 09:22:12;;;;;;;14.17;12.97;;;30.70;99.90;;;;;;5126477;27;20283;-83
2023/09/12 09:24:39;;;;;;;14.30;13.07;;;30.80;99.90;;;;;;5127591;27;20192;-83
2023/09/12 09:27:06;;;;;;;12.77;11.67;;;30.80;99.90;;;;;;5126413;27;20615;-84
2023/09/12 09:29:47;;;;;;;13.73;11.43;;;30.90;99.90;;;;;;5126135;27;20216;-83
2023/09/12 09:32:18;;;;;;;12.47;11.27;;;30.90;99.90;;;;;;5126427;27;20268;-83
2023/09/12 09:34:46;;;;;;;11.77;10.83;;;31.10;99.90;;;;;;5121399;27;20312;-84
2023/09/12 09:37:15;;;;;;;11.65;10.68;;;31.30;99.90;;;;;;5124630;27;20534;-83
2023/09/12 09:39:42;;;;;;;11.97;10.97;;;31.50;99.90;;;;;;5119434;27;20274;-83
2023/09/12 09:42:11;;;;;;;11.90;10.90;;;31.70;99.90;;;;;;5132243;27;20213;-83
2023/09/12 09:44:40;;;;;;;11.70;10.70;;;31.80;99.90;;;;;;5122485;27;20208;-83
2023/09/12 09:47:24;;;;;;;10.83;9.93;;;31.80;99.90;;;;;;5126820;27;20200;-83
2023/09/12 09:49:55;;;;;;;11.83;10.80;;;32.00;99.90;;;;;;5125383;27;20236;-83
2023/09/12 09:52:31;;;;;;;11.30;10.40;;;31.90;99.90;;;;;;5125561;27;20199;-83
2023/09/12 09:54:58;;;;;;;11.90;10.90;;;31.90;99.90;;;;;;5121133;27;20218;-83
2023/09/12 09:57:27;;;;;;;13.57;12.37;;;32.00;99.90;;;;;;5128123;27;20207;-84
2023/09/12 09:59:55;;;;;;;12.83;11.83;;;31.90;99.90;;;;;;5122484;27;20638;-83
2023/09/12 10:02:26;;;;;;;12.33;11.30;;;31.90;99.90;;;;;;5107977;27;20197;-83
2023/09/12 10:04:56;;;;;;;11.93;10.93;;;32.00;99.90;;;;;;5107494;28;20411;-83
2023/09/12 10:07:23;;;;;;;10.70;9.80;;;31.90;99.90;;;;;;5112855;28;20208;-83
2023/09/12 10:09:50;;;;;;;12.23;11.23;;;31.90;99.90;;;;;;5120664;28;20779;-83
2023/09/12 10:12:17;;;;;;;13.07;11.97;;;31.70;99.90;;;;;;5127631;28;20670;-83
2023/09/12 10:14:45;;;;;;;12.10;10.98;;;31.80;99.90;;;;;;5125097;28;20568;-84
2023/09/12 10:17:16;;;;;;;12.52;11.52;;;31.80;99.90;;;;;;5126950;28;20291;-83
2023/09/12 10:19:56;;;;;;;13.10;12.00;;;31.90;99.90;;;;;;5114375;28;20908;-84
2023/09/12 10:22:31;;;;;;;11.13;10.30;;;31.70;99.90;;;;;;5124562;28;20257;-83
2023/09/12 10:24:58;;;;;;;10.87;9.97;;;31.80;99.90;;;;;;5131733;28;20200;-84
2023/09/12 10:27:25;;;;;;;11.65;10.57;;;31.70;99.90;;;;;;5124508;28;20185;-82
2023/09/12 10:29:53;;;;;;;10.75;9.95;;;31.70;99.90;;;;;;5123137;28;20794;-82
2023/09/12 10:32:23;;;;;;;10.55;9.70;;;31.80;99.90;;;;;;5118784;28;20197;-84
2023/09/12 10:34:50;;;;;;;11.80;10.70;;;31.80;99.90;;;;;;5126260;28;20217;-83
2023/09/12 10:37:17;;;;;;;11.30;10.45;;;31.70;99.90;;;;;;5130098;28;20264;-83
2023/09/12 10:39:45;;;;;;;11.47;10.67;;;31.70;99.90;;;;;;5113701;28;20221;-83
2023/09/12 10:42:12;;;;;;;11.43;10.63;;;31.80;99.90;;;;;;5121682;28;20223;-83
2023/09/12 10:44:39;;;;;;;12.07;10.97;;;31.80;99.90;;;;;;5129271;27;20558;-83
2023/09/12 10:47:07;;;;;;;11.43;10.63;;;31.70;99.90;;;;;;5128224;27;20197;-82
2023/09/12 10:49:35;;;;;;;11.33;10.43;;;31.60;99.90;;;;;;5121017;27;20265;-83
2023/09/12 10:52:03;;;;;;;11.40;10.60;;;31.50;99.90;;;;;;5123362;27;20318;-84
2023/09/12 10:54:38;;;;;;;11.73;10.83;;;31.40;99.90;;;;;;5130399;27;20219;-82
2023/09/12 10:57:05;;;;;;;11.87;10.97;;;31.20;99.90;;;;;;5134596;27;20222;-82
2023/09/12 10:59:35;;;;;;;11.47;10.67;;;31.10;99.90;;;;;;5136538;27;20220;-83
2023/09/12 11:02:30;;;;;;;12.33;11.43;;;31.00;99.90;;;;;;5132608;27;20201;-83
2023/09/12 11:04:59;;;;;;;10.00;9.10;;;30.90;99.90;;;;;;5127800;27;20198;-82
2023/09/12 11:07:45;;;;;;;11.53;10.53;;;30.80;99.90;;;;;;5121594;27;20249;-83
2023/09/12 11:10:22;;;;;;;8.60;7.70;;;30.80;99.90;;;;;;5126175;27;20373;-81
2023/09/12 11:12:51;;;;;;;7.87;7.17;;;30.70;99.90;;;;;;5128150;27;20287;-80
2023/09/12 11:15:18;;;;;;;11.27;10.37;;;30.70;99.90;;;;;;5115780;27;20274;-80
2023/09/12 11:17:46;;;;;;;10.50;9.70;;;30.70;99.90;;;;;;5114188;27;20196;-80
2023/09/12 11:20:16;;;;;;;10.67;9.87;;;30.50;99.90;;;;;;5127777;27;20698;-80
2023/09/12 11:22:44;;;;;;;10.70;9.90;;;30.50;99.90;;;;;;5131037;27;20203;-80
2023/09/12 11:25:18;;;;;;;10.53;9.83;;;30.50;99.90;;;;;;5121521;27;20668;-80
2023/09/12 11:28:02;;;;;;;11.27;10.27;;;30.50;99.90;;;;;;5128704;27;20548;-81
2023/09/12 11:30:30;;;;;;;10.77;9.70;;;30.40;99.90;;;;;;5114892;27;20217;-80
2023/09/12 11:32:58;;;;;;;11.57;10.67;;;30.30;99.90;;;;;;5106778;28;20194;-81
2023/09/12 11:35:28;;;;;;;10.90;10.00;;;30.20;99.90;;;;;;5118936;27;20217;-81
2023/09/12 11:37:56;;;;;;;11.03;10.13;;;30.20;99.90;;;;;;5123537;27;20654;-81
2023/09/12 11:40:25;;;;;;;10.50;9.70;;;30.20;99.90;;;;;;5119175;27;20257;-80
2023/09/12 11:42:53;;;;;;;10.27;9.47;;;30.20;99.90;;;;;;5130355;27;20201;-80
2023/09/12 11:45:21;;;;;;;10.40;9.60;;;30.40;99.90;;;;;;5124081;27;20216;-81
2023/09/12 11:47:49;;;;;;;10.53;9.63;;;30.40;99.90;;;;;;5119216;27;20205;-81
2023/09/12 11:50:30;;;;;;;10.90;10.00;;;30.40;99.90;;;;;;5107765;27;20574;-80
2023/09/12 11:53:01;;;;;;;10.80;9.90;;;30.40;99.90;;;;;;5115615;27;20188;-80
2023/09/12 11:55:30;;;;;;;10.30;9.50;;;30.40;99.90;;;;;;5133757;27;20209;-80
2023/09/12 11:57:57;;;;;;;10.90;10.00;;;30.40;99.90;;;;;;5120016;27;20264;-81
2023/09/12 12:00:26;;;;;;;11.20;10.30;;;30.40;99.90;;;;;;5119947;27;20218;-80
2023/09/12 12:02:53;;;;;;;10.53;9.73;;;30.10;99.90;;;;;;5121583;27;20291;-81
2023/09/12 12:05:20;;;;;;;10.70;9.90;;;30.10;99.90;;;;;;5133675;27;20218;-81
2023/09/12 12:07:49;;;;;;;10.97;10.07;;;30.10;99.90;;;;;;5128772;27;20228;-81
2023/09/12 12:10:17;;;;;;;11.67;10.60;;;30.10;99.90;;;;;;5128164;27;20698;-81
2023/09/12 12:12:45;;;;;;;10.60;9.80;;;30.20;99.90;;;;;;5129018;27;20249;-81
2023/09/12 12:15:13;;;;;;;10.30;9.57;;;30.20;99.90;;;;;;5127035;27;20291;-81
2023/09/12 12:17:41;;;;;;;10.50;9.70;;;30.10;99.90;;;;;;5130121;22;20574;-77
2023/09/12 12:20:10;;;;;;;10.00;9.30;;;30.10;99.90;;;;;;5056986;28;20203;-77
2023/09/12 12:22:38;;;;;;;11.00;10.20;;;30.20;99.90;;;;;;5048479;28;20199;-77
2023/09/12 12:25:10;;;;;;;10.57;9.77;;;30.10;99.90;;;;;;5056775;28;20202;-77
2023/09/12 12:27:38;;;;;;;10.43;9.63;;;30.10;99.90;;;;;;5053967;28;20701;-77
2023/09/12 12:30:07;;;;;;;10.70;9.90;;;30.10;99.90;;;;;;5051856;28;20201;-77
2023/09/12 12:32:34;;;;;;;10.93;10.03;;;30.10;99.90;;;;;;5035104;28;20272;-80
2023/09/12 12:35:02;;;;;;;10.63;9.80;;;30.00;99.90;;;;;;5050723;28;20452;-80
2023/09/12 12:37:31;;;;;;;11.63;10.73;;;30.00;99.90;;;;;;5054169;28;20844;-80
2023/09/12 12:39:58;;;;;;;11.13;10.20;;;29.90;99.90;;;;;;5048838;28;20234;-80
2023/09/12 12:42:26;;;;;;;10.70;9.90;;;29.90;99.90;;;;;;5054767;28;20743;-80
2023/09/12 12:44:54;;;;;;;10.80;10.00;;;29.90;99.90;;;;;;5052023;28;20293;-79